sensor_id;sensor_type;location;lat;lon;timestamp;temperature;humidity
314;DHT22;143;51.634;7.112;2024-01-27T00:00:23;4.90;1.00
314;DHT22;143;51.634;7.112;2024-01-27T00:02:48;5.00;1.00
314;DHT22;143;51.634;7.112;2024-01-27T00:05:14;5.20;1.00
314;DHT22;143;51.634;7.112;2024-01-27T00:07:39;4.90;1.00
314;DHT22;143;51.634;7.112;2024-01-27T00:10:06;5.00;1.00
314;DHT22;143;51.634;7.112;2024-01-27T00:12:31;5.40;1.00
314;DHT22;143;51.634;7.112;2024-01-27T00:14:57;5.10;1.00
314;DHT22;143;51.634;7.112;2024-01-27T00:17:23;5.00;1.00
314;DHT22;143;51.634;7.112;2024-01-27T00:19:51;4.90;1.00
314;DHT22;143;51.634;7.112;2024-01-27T00:22:17;5.10;1.00
314;DHT22;143;51.634;7.112;2024-01-27T00:24:43;4.90;1.00
314;DHT22;143;51.634;7.112;2024-01-27T00:27:09;5.10;1.00
314;DHT22;143;51.634;7.112;2024-01-27T00:29:34;4.90;1.00
314;DHT22;143;51.634;7.112;2024-01-27T00:32:00;5.00;1.00
314;DHT22;143;51.634;7.112;2024-01-27T00:34:25;4.90;1.00
314;DHT22;143;51.634;7.112;2024-01-27T00:36:51;4.90;1.00
314;DHT22;143;51.634;7.112;2024-01-27T00:39:17;5.00;1.00
314;DHT22;143;51.634;7.112;2024-01-27T00:41:43;4.90;1.00
314;DHT22;143;51.634;7.112;2024-01-27T00:44:09;4.80;1.00
314;DHT22;143;51.634;7.112;2024-01-27T00:46:36;4.90;1.00
314;DHT22;143;51.634;7.112;2024-01-27T00:49:01;5.00;1.00
314;DHT22;143;51.634;7.112;2024-01-27T00:51:27;5.00;1.00
314;DHT22;143;51.634;7.112;2024-01-27T00:53:52;5.00;1.00
314;DHT22;143;51.634;7.112;2024-01-27T00:56:18;4.70;1.00
314;DHT22;143;51.634;7.112;2024-01-27T00:58:43;4.90;1.00
314;DHT22;143;51.634;7.112;2024-01-27T01:01:09;4.70;1.00
314;DHT22;143;51.634;7.112;2024-01-27T01:03:34;4.90;1.00
314;DHT22;143;51.634;7.112;2024-01-27T01:06:00;4.70;1.00
314;DHT22;143;51.634;7.112;2024-01-27T01:08:25;4.70;1.00
314;DHT22;143;51.634;7.112;2024-01-27T01:10:51;4.70;1.00
314;DHT22;143;51.634;7.112;2024-01-27T01:13:16;4.80;1.00
314;DHT22;143;51.634;7.112;2024-01-27T01:15:42;4.70;1.00
314;DHT22;143;51.634;7.112;2024-01-27T01:18:07;4.50;1.00
314;DHT22;143;51.634;7.112;2024-01-27T01:20:33;4.70;1.00
314;DHT22;143;51.634;7.112;2024-01-27T01:22:58;4.90;1.00
314;DHT22;143;51.634;7.112;2024-01-27T01:25:24;4.40;1.00
314;DHT22;143;51.634;7.112;2024-01-27T01:27:50;4.60;1.00
314;DHT22;143;51.634;7.112;2024-01-27T01:30:16;4.50;1.00
314;DHT22;143;51.634;7.112;2024-01-27T01:32:42;4.60;1.00
314;DHT22;143;51.634;7.112;2024-01-27T01:35:09;4.60;1.00
314;DHT22;143;51.634;7.112;2024-01-27T01:37:35;4.80;1.00
314;DHT22;143;51.634;7.112;2024-01-27T01:40:00;4.80;1.00
314;DHT22;143;51.634;7.112;2024-01-27T01:42:26;4.50;1.00
314;DHT22;143;51.634;7.112;2024-01-27T01:44:51;4.60;1.00
314;DHT22;143;51.634;7.112;2024-01-27T01:47:17;4.60;1.00
314;DHT22;143;51.634;7.112;2024-01-27T01:49:43;4.60;1.00
314;DHT22;143;51.634;7.112;2024-01-27T01:52:09;4.70;1.00
314;DHT22;143;51.634;7.112;2024-01-27T01:54:35;4.70;1.00
314;DHT22;143;51.634;7.112;2024-01-27T01:57:02;4.50;1.00
314;DHT22;143;51.634;7.112;2024-01-27T01:59:28;4.60;1.00
314;DHT22;143;51.634;7.112;2024-01-27T02:01:54;4.70;1.00
314;DHT22;143;51.634;7.112;2024-01-27T02:04:19;4.80;1.00
314;DHT22;143;51.634;7.112;2024-01-27T02:06:45;4.60;1.00
314;DHT22;143;51.634;7.112;2024-01-27T02:09:11;4.50;1.00
314;DHT22;143;51.634;7.112;2024-01-27T02:11:36;4.50;1.00
314;DHT22;143;51.634;7.112;2024-01-27T02:14:02;4.30;1.00
314;DHT22;143;51.634;7.112;2024-01-27T02:16:28;4.30;1.00
314;DHT22;143;51.634;7.112;2024-01-27T02:18:53;4.40;1.00
314;DHT22;143;51.634;7.112;2024-01-27T02:21:19;4.70;1.00
314;DHT22;143;51.634;7.112;2024-01-27T02:23:44;4.30;1.00
314;DHT22;143;51.634;7.112;2024-01-27T02:26:10;4.40;1.00
314;DHT22;143;51.634;7.112;2024-01-27T02:28:35;4.50;1.00
314;DHT22;143;51.634;7.112;2024-01-27T02:31:01;4.60;1.00
314;DHT22;143;51.634;7.112;2024-01-27T02:33:27;4.40;1.00
314;DHT22;143;51.634;7.112;2024-01-27T02:35:52;4.60;1.00
314;DHT22;143;51.634;7.112;2024-01-27T02:38:18;4.30;1.00
314;DHT22;143;51.634;7.112;2024-01-27T02:40:43;4.30;1.00
314;DHT22;143;51.634;7.112;2024-01-27T02:43:09;4.60;1.00
314;DHT22;143;51.634;7.112;2024-01-27T02:45:34;4.40;1.00
314;DHT22;143;51.634;7.112;2024-01-27T02:48:00;4.40;1.00
314;DHT22;143;51.634;7.112;2024-01-27T02:50:26;4.60;1.00
314;DHT22;143;51.634;7.112;2024-01-27T02:52:52;4.30;1.00
314;DHT22;143;51.634;7.112;2024-01-27T02:55:17;4.60;1.00
314;DHT22;143;51.634;7.112;2024-01-27T02:57:43;4.30;1.00
314;DHT22;143;51.634;7.112;2024-01-27T03:00:09;4.30;1.00
314;DHT22;143;51.634;7.112;2024-01-27T03:02:34;4.40;1.00
314;DHT22;143;51.634;7.112;2024-01-27T03:05:00;4.30;1.00
314;DHT22;143;51.634;7.112;2024-01-27T03:07:26;4.20;1.00
314;DHT22;143;51.634;7.112;2024-01-27T03:09:51;4.30;1.00
314;DHT22;143;51.634;7.112;2024-01-27T03:12:17;4.20;1.00
314;DHT22;143;51.634;7.112;2024-01-27T03:14:43;4.30;1.00
314;DHT22;143;51.634;7.112;2024-01-27T03:17:09;4.10;1.00
314;DHT22;143;51.634;7.112;2024-01-27T03:19:34;4.30;1.00
314;DHT22;143;51.634;7.112;2024-01-27T03:22:00;4.10;1.00
314;DHT22;143;51.634;7.112;2024-01-27T03:24:25;4.30;1.00
314;DHT22;143;51.634;7.112;2024-01-27T03:26:51;4.00;1.00
314;DHT22;143;51.634;7.112;2024-01-27T03:29:16;4.10;1.00
314;DHT22;143;51.634;7.112;2024-01-27T03:31:42;4.30;1.00
314;DHT22;143;51.634;7.112;2024-01-27T03:34:07;4.00;1.00
314;DHT22;143;51.634;7.112;2024-01-27T03:36:33;4.20;1.00
314;DHT22;143;51.634;7.112;2024-01-27T03:38:59;4.10;1.00
314;DHT22;143;51.634;7.112;2024-01-27T03:41:24;4.30;1.00
314;DHT22;143;51.634;7.112;2024-01-27T03:43:50;4.10;1.00
314;DHT22;143;51.634;7.112;2024-01-27T03:46:16;4.00;1.00
314;DHT22;143;51.634;7.112;2024-01-27T03:48:41;4.00;1.00
314;DHT22;143;51.634;7.112;2024-01-27T03:51:07;4.00;1.00
314;DHT22;143;51.634;7.112;2024-01-27T03:53:33;4.10;1.00
314;DHT22;143;51.634;7.112;2024-01-27T03:55:58;3.90;1.00
314;DHT22;143;51.634;7.112;2024-01-27T03:58:27;3.80;1.00
314;DHT22;143;51.634;7.112;2024-01-27T04:00:52;3.80;1.00
314;DHT22;143;51.634;7.112;2024-01-27T04:03:18;3.90;1.00
314;DHT22;143;51.634;7.112;2024-01-27T04:05:43;3.90;1.00
314;DHT22;143;51.634;7.112;2024-01-27T04:08:09;3.80;1.00
314;DHT22;143;51.634;7.112;2024-01-27T04:10:36;3.90;1.00
314;DHT22;143;51.634;7.112;2024-01-27T04:13:02;3.90;1.00
314;DHT22;143;51.634;7.112;2024-01-27T04:15:27;3.80;1.00
314;DHT22;143;51.634;7.112;2024-01-27T04:17:53;3.90;1.00
314;DHT22;143;51.634;7.112;2024-01-27T04:20:19;3.60;1.00
314;DHT22;143;51.634;7.112;2024-01-27T04:22:45;3.70;1.00
314;DHT22;143;51.634;7.112;2024-01-27T04:25:11;3.70;1.00
314;DHT22;143;51.634;7.112;2024-01-27T04:27:37;3.60;1.00
314;DHT22;143;51.634;7.112;2024-01-27T04:30:06;3.60;1.00
314;DHT22;143;51.634;7.112;2024-01-27T04:32:32;3.60;1.00
314;DHT22;143;51.634;7.112;2024-01-27T04:34:57;3.60;1.00
314;DHT22;143;51.634;7.112;2024-01-27T04:37:23;3.50;1.00
314;DHT22;143;51.634;7.112;2024-01-27T04:39:48;3.40;1.00
314;DHT22;143;51.634;7.112;2024-01-27T04:42:14;3.40;1.00
314;DHT22;143;51.634;7.112;2024-01-27T04:44:40;3.10;1.00
314;DHT22;143;51.634;7.112;2024-01-27T04:47:07;3.40;1.00
314;DHT22;143;51.634;7.112;2024-01-27T04:49:32;3.40;1.00
314;DHT22;143;51.634;7.112;2024-01-27T04:51:59;3.10;1.00
314;DHT22;143;51.634;7.112;2024-01-27T04:54:25;3.40;1.00
314;DHT22;143;51.634;7.112;2024-01-27T04:56:50;3.10;1.00
314;DHT22;143;51.634;7.112;2024-01-27T04:59:16;3.30;1.00
314;DHT22;143;51.634;7.112;2024-01-27T05:01:45;3.10;1.00
314;DHT22;143;51.634;7.112;2024-01-27T05:04:11;3.20;1.00
314;DHT22;143;51.634;7.112;2024-01-27T05:06:36;3.30;1.00
314;DHT22;143;51.634;7.112;2024-01-27T05:09:04;3.10;1.00
314;DHT22;143;51.634;7.112;2024-01-27T05:11:32;3.30;1.00
314;DHT22;143;51.634;7.112;2024-01-27T05:13:58;3.10;1.00
314;DHT22;143;51.634;7.112;2024-01-27T05:16:24;3.30;1.00
314;DHT22;143;51.634;7.112;2024-01-27T05:18:49;3.00;1.00
314;DHT22;143;51.634;7.112;2024-01-27T05:21:15;3.10;1.00
314;DHT22;143;51.634;7.112;2024-01-27T05:23:40;3.20;1.00
314;DHT22;143;51.634;7.112;2024-01-27T05:26:06;3.40;1.00
314;DHT22;143;51.634;7.112;2024-01-27T05:28:32;3.10;1.00
314;DHT22;143;51.634;7.112;2024-01-27T05:30:58;3.00;1.00
314;DHT22;143;51.634;7.112;2024-01-27T05:33:24;2.90;1.00
314;DHT22;143;51.634;7.112;2024-01-27T05:35:49;3.30;1.00
314;DHT22;143;51.634;7.112;2024-01-27T05:38:15;3.10;1.00
314;DHT22;143;51.634;7.112;2024-01-27T05:40:41;3.00;1.00
314;DHT22;143;51.634;7.112;2024-01-27T05:43:07;3.20;1.00
314;DHT22;143;51.634;7.112;2024-01-27T05:45:33;2.90;1.00
314;DHT22;143;51.634;7.112;2024-01-27T05:47:58;3.00;1.00
314;DHT22;143;51.634;7.112;2024-01-27T05:50:24;2.90;1.00
314;DHT22;143;51.634;7.112;2024-01-27T05:52:49;2.90;1.00
314;DHT22;143;51.634;7.112;2024-01-27T05:55:15;2.90;1.00
314;DHT22;143;51.634;7.112;2024-01-27T05:57:42;2.90;1.00
314;DHT22;143;51.634;7.112;2024-01-27T06:00:07;2.80;1.00
314;DHT22;143;51.634;7.112;2024-01-27T06:02:35;2.90;1.00
314;DHT22;143;51.634;7.112;2024-01-27T06:05:01;2.90;1.00
314;DHT22;143;51.634;7.112;2024-01-27T06:07:27;2.90;1.00
314;DHT22;143;51.634;7.112;2024-01-27T06:09:52;2.90;1.00
314;DHT22;143;51.634;7.112;2024-01-27T06:12:18;3.10;1.00
314;DHT22;143;51.634;7.112;2024-01-27T06:14:44;2.90;1.00
314;DHT22;143;51.634;7.112;2024-01-27T06:17:09;2.90;1.00
314;DHT22;143;51.634;7.112;2024-01-27T06:19:35;3.00;1.00
314;DHT22;143;51.634;7.112;2024-01-27T06:22:01;3.10;1.00
314;DHT22;143;51.634;7.112;2024-01-27T06:24:26;2.90;1.00
314;DHT22;143;51.634;7.112;2024-01-27T06:26:52;2.90;1.00
314;DHT22;143;51.634;7.112;2024-01-27T06:29:17;2.80;1.00
314;DHT22;143;51.634;7.112;2024-01-27T06:31:44;2.80;1.00
314;DHT22;143;51.634;7.112;2024-01-27T06:34:09;2.90;1.00
314;DHT22;143;51.634;7.112;2024-01-27T06:36:35;2.70;1.00
314;DHT22;143;51.634;7.112;2024-01-27T06:39:00;2.70;1.00
314;DHT22;143;51.634;7.112;2024-01-27T06:41:26;2.80;1.00
314;DHT22;143;51.634;7.112;2024-01-27T06:43:51;2.70;1.00
314;DHT22;143;51.634;7.112;2024-01-27T06:46:17;2.60;1.00
314;DHT22;143;51.634;7.112;2024-01-27T06:48:42;2.70;1.00
314;DHT22;143;51.634;7.112;2024-01-27T06:51:08;2.70;1.00
314;DHT22;143;51.634;7.112;2024-01-27T06:53:34;2.50;1.00
314;DHT22;143;51.634;7.112;2024-01-27T06:55:59;2.70;1.00
314;DHT22;143;51.634;7.112;2024-01-27T06:58:25;2.80;1.00
314;DHT22;143;51.634;7.112;2024-01-27T07:00:51;2.60;1.00
314;DHT22;143;51.634;7.112;2024-01-27T07:03:16;2.60;1.00
314;DHT22;143;51.634;7.112;2024-01-27T07:05:42;2.70;1.00
314;DHT22;143;51.634;7.112;2024-01-27T07:08:07;2.60;1.00
314;DHT22;143;51.634;7.112;2024-01-27T07:10:34;2.80;1.00
314;DHT22;143;51.634;7.112;2024-01-27T07:12:59;2.60;1.00
314;DHT22;143;51.634;7.112;2024-01-27T07:15:25;2.70;1.00
314;DHT22;143;51.634;7.112;2024-01-27T07:17:52;2.60;1.00
314;DHT22;143;51.634;7.112;2024-01-27T07:20:18;2.70;1.00
314;DHT22;143;51.634;7.112;2024-01-27T07:22:44;2.70;1.00
314;DHT22;143;51.634;7.112;2024-01-27T07:25:10;2.60;1.00
314;DHT22;143;51.634;7.112;2024-01-27T07:27:36;2.70;1.00
314;DHT22;143;51.634;7.112;2024-01-27T07:30:02;2.90;1.00
314;DHT22;143;51.634;7.112;2024-01-27T07:32:28;2.80;1.00
314;DHT22;143;51.634;7.112;2024-01-27T07:34:54;2.70;1.00
314;DHT22;143;51.634;7.112;2024-01-27T07:37:19;2.70;1.00
314;DHT22;143;51.634;7.112;2024-01-27T07:39:46;2.50;1.00
314;DHT22;143;51.634;7.112;2024-01-27T07:42:12;2.60;1.00
314;DHT22;143;51.634;7.112;2024-01-27T07:44:37;2.60;1.00
314;DHT22;143;51.634;7.112;2024-01-27T07:47:03;2.70;1.00
314;DHT22;143;51.634;7.112;2024-01-27T07:49:29;3.00;1.00
314;DHT22;143;51.634;7.112;2024-01-27T07:51:54;2.70;1.00
314;DHT22;143;51.634;7.112;2024-01-27T07:54:20;2.70;1.00
314;DHT22;143;51.634;7.112;2024-01-27T07:56:46;2.70;1.00
314;DHT22;143;51.634;7.112;2024-01-27T07:59:11;2.80;1.00
314;DHT22;143;51.634;7.112;2024-01-27T08:01:40;2.80;1.00
314;DHT22;143;51.634;7.112;2024-01-27T08:04:06;2.80;1.00
314;DHT22;143;51.634;7.112;2024-01-27T08:06:31;2.80;1.00
314;DHT22;143;51.634;7.112;2024-01-27T08:08:57;2.60;1.00
314;DHT22;143;51.634;7.112;2024-01-27T08:11:22;2.70;1.00
314;DHT22;143;51.634;7.112;2024-01-27T08:13:49;2.70;1.00
314;DHT22;143;51.634;7.112;2024-01-27T08:16:15;2.80;1.00
314;DHT22;143;51.634;7.112;2024-01-27T08:18:41;2.70;1.00
314;DHT22;143;51.634;7.112;2024-01-27T08:21:11;2.60;1.00
314;DHT22;143;51.634;7.112;2024-01-27T08:23:39;2.70;1.00
314;DHT22;143;51.634;7.112;2024-01-27T08:26:04;2.90;1.00
314;DHT22;143;51.634;7.112;2024-01-27T08:28:30;3.00;1.00
314;DHT22;143;51.634;7.112;2024-01-27T08:30:56;3.10;1.00
314;DHT22;143;51.634;7.112;2024-01-27T08:33:21;3.00;1.00
314;DHT22;143;51.634;7.112;2024-01-27T08:35:47;3.10;1.00
314;DHT22;143;51.634;7.112;2024-01-27T08:38:17;3.50;1.00
314;DHT22;143;51.634;7.112;2024-01-27T08:40:42;3.60;1.00
314;DHT22;143;51.634;7.112;2024-01-27T08:43:08;3.70;1.00
314;DHT22;143;51.634;7.112;2024-01-27T08:45:36;3.70;1.00
314;DHT22;143;51.634;7.112;2024-01-27T08:48:02;3.80;1.00
314;DHT22;143;51.634;7.112;2024-01-27T08:50:28;3.70;1.00
314;DHT22;143;51.634;7.112;2024-01-27T08:52:53;4.10;1.00
314;DHT22;143;51.634;7.112;2024-01-27T08:55:19;4.10;1.00
314;DHT22;143;51.634;7.112;2024-01-27T08:57:48;4.20;1.00
314;DHT22;143;51.634;7.112;2024-01-27T09:00:13;4.50;1.00
314;DHT22;143;51.634;7.112;2024-01-27T09:02:40;4.60;1.00
314;DHT22;143;51.634;7.112;2024-01-27T09:05:06;4.40;1.00
314;DHT22;143;51.634;7.112;2024-01-27T09:07:33;4.90;1.00
314;DHT22;143;51.634;7.112;2024-01-27T09:09:59;4.90;1.00
314;DHT22;143;51.634;7.112;2024-01-27T09:12:24;5.00;1.00
314;DHT22;143;51.634;7.112;2024-01-27T09:14:50;4.70;1.00
314;DHT22;143;51.634;7.112;2024-01-27T09:17:15;4.90;1.00
314;DHT22;143;51.634;7.112;2024-01-27T09:19:41;5.00;99.90
314;DHT22;143;51.634;7.112;2024-01-27T09:22:07;5.30;99.90
314;DHT22;143;51.634;7.112;2024-01-27T09:24:32;5.10;99.90
314;DHT22;143;51.634;7.112;2024-01-27T09:26:58;5.10;99.90
314;DHT22;143;51.634;7.112;2024-01-27T09:29:24;5.30;99.90
314;DHT22;143;51.634;7.112;2024-01-27T09:31:49;5.30;99.90
314;DHT22;143;51.634;7.112;2024-01-27T09:34:15;5.50;99.90
314;DHT22;143;51.634;7.112;2024-01-27T09:36:40;5.60;99.90
314;DHT22;143;51.634;7.112;2024-01-27T09:39:06;5.50;99.90
314;DHT22;143;51.634;7.112;2024-01-27T09:41:32;5.60;99.90
314;DHT22;143;51.634;7.112;2024-01-27T09:44:01;5.60;99.90
314;DHT22;143;51.634;7.112;2024-01-27T09:46:28;5.90;99.90
314;DHT22;143;51.634;7.112;2024-01-27T09:48:53;5.80;99.90
314;DHT22;143;51.634;7.112;2024-01-27T09:51:19;6.10;99.90
314;DHT22;143;51.634;7.112;2024-01-27T09:53:45;6.10;99.90
314;DHT22;143;51.634;7.112;2024-01-27T09:56:12;6.60;99.90
314;DHT22;143;51.634;7.112;2024-01-27T09:58:43;6.70;99.90
314;DHT22;143;51.634;7.112;2024-01-27T10:01:10;6.70;99.90
314;DHT22;143;51.634;7.112;2024-01-27T10:03:36;7.10;99.90
314;DHT22;143;51.634;7.112;2024-01-27T10:06:05;7.10;99.90
314;DHT22;143;51.634;7.112;2024-01-27T10:08:33;7.50;99.90
314;DHT22;143;51.634;7.112;2024-01-27T10:10:58;7.50;99.90
314;DHT22;143;51.634;7.112;2024-01-27T10:13:25;7.80;99.90
314;DHT22;143;51.634;7.112;2024-01-27T10:16:07;7.90;99.90
314;DHT22;143;51.634;7.112;2024-01-27T10:18:34;8.40;99.90
314;DHT22;143;51.634;7.112;2024-01-27T10:21:00;8.30;99.90
314;DHT22;143;51.634;7.112;2024-01-27T10:23:26;8.60;99.90
314;DHT22;143;51.634;7.112;2024-01-27T10:25:52;8.90;99.90
314;DHT22;143;51.634;7.112;2024-01-27T10:28:18;9.20;9.60
314;DHT22;143;51.634;7.112;2024-01-27T10:30:44;9.40;1.00
314;DHT22;143;51.634;7.112;2024-01-27T10:33:10;9.60;1.00
314;DHT22;143;51.634;7.112;2024-01-27T10:35:42;9.40;1.00
314;DHT22;143;51.634;7.112;2024-01-27T10:38:07;9.70;1.00
314;DHT22;143;51.634;7.112;2024-01-27T10:40:34;10.20;1.00
314;DHT22;143;51.634;7.112;2024-01-27T10:43:02;10.40;1.00
314;DHT22;143;51.634;7.112;2024-01-27T10:45:36;10.80;1.00
314;DHT22;143;51.634;7.112;2024-01-27T10:48:03;11.10;1.00
314;DHT22;143;51.634;7.112;2024-01-27T10:50:29;11.80;1.00
314;DHT22;143;51.634;7.112;2024-01-27T10:52:57;12.60;1.00
314;DHT22;143;51.634;7.112;2024-01-27T10:55:24;13.80;1.00
314;DHT22;143;51.634;7.112;2024-01-27T10:57:52;15.00;1.00
314;DHT22;143;51.634;7.112;2024-01-27T11:00:19;15.90;1.00
314;DHT22;143;51.634;7.112;2024-01-27T11:02:45;16.30;1.00
314;DHT22;143;51.634;7.112;2024-01-27T11:05:13;16.20;1.00
314;DHT22;143;51.634;7.112;2024-01-27T11:07:39;16.80;1.00
314;DHT22;143;51.634;7.112;2024-01-27T11:10:07;17.20;1.00
314;DHT22;143;51.634;7.112;2024-01-27T11:12:33;18.00;1.00
314;DHT22;143;51.634;7.112;2024-01-27T11:14:59;18.70;1.00
314;DHT22;143;51.634;7.112;2024-01-27T11:17:24;19.10;1.00
314;DHT22;143;51.634;7.112;2024-01-27T11:19:50;18.90;1.00
314;DHT22;143;51.634;7.112;2024-01-27T11:22:29;19.40;1.00
314;DHT22;143;51.634;7.112;2024-01-27T11:25:17;20.10;1.00
314;DHT22;143;51.634;7.112;2024-01-27T11:27:44;19.70;1.00
314;DHT22;143;51.634;7.112;2024-01-27T11:30:29;19.90;1.00
314;DHT22;143;51.634;7.112;2024-01-27T11:32:56;20.50;1.00
314;DHT22;143;51.634;7.112;2024-01-27T11:35:25;21.50;1.00
314;DHT22;143;51.634;7.112;2024-01-27T11:37:50;21.70;99.90
314;DHT22;143;51.634;7.112;2024-01-27T11:40:16;21.90;99.90
314;DHT22;143;51.634;7.112;2024-01-27T11:42:42;22.30;99.90
314;DHT22;143;51.634;7.112;2024-01-27T11:45:08;22.70;99.90
314;DHT22;143;51.634;7.112;2024-01-27T11:47:35;23.10;99.90
314;DHT22;143;51.634;7.112;2024-01-27T11:50:01;23.70;99.90
314;DHT22;143;51.634;7.112;2024-01-27T11:52:28;23.10;99.90
314;DHT22;143;51.634;7.112;2024-01-27T11:54:58;22.90;99.90
314;DHT22;143;51.634;7.112;2024-01-27T11:57:24;22.70;99.90
314;DHT22;143;51.634;7.112;2024-01-27T11:59:51;22.70;99.90
314;DHT22;143;51.634;7.112;2024-01-27T12:02:17;22.60;99.90
314;DHT22;143;51.634;7.112;2024-01-27T12:04:43;22.30;99.90
314;DHT22;143;51.634;7.112;2024-01-27T12:07:08;22.30;99.90
314;DHT22;143;51.634;7.112;2024-01-27T12:09:36;22.60;99.90
314;DHT22;143;51.634;7.112;2024-01-27T12:12:03;22.90;99.90
314;DHT22;143;51.634;7.112;2024-01-27T12:14:39;23.30;99.90
314;DHT22;143;51.634;7.112;2024-01-27T12:17:08;23.80;99.90
314;DHT22;143;51.634;7.112;2024-01-27T12:19:35;24.00;99.90
314;DHT22;143;51.634;7.112;2024-01-27T12:22:01;24.20;99.90
314;DHT22;143;51.634;7.112;2024-01-27T12:24:27;24.50;99.90
314;DHT22;143;51.634;7.112;2024-01-27T12:26:52;24.60;99.90
314;DHT22;143;51.634;7.112;2024-01-27T12:29:20;24.50;99.90
314;DHT22;143;51.634;7.112;2024-01-27T12:31:46;24.30;99.90
314;DHT22;143;51.634;7.112;2024-01-27T12:34:12;24.10;99.90
314;DHT22;143;51.634;7.112;2024-01-27T12:36:41;23.10;99.90
314;DHT22;143;51.634;7.112;2024-01-27T12:39:08;22.20;99.90
314;DHT22;143;51.634;7.112;2024-01-27T12:41:34;21.60;99.90
314;DHT22;143;51.634;7.112;2024-01-27T12:44:00;20.60;99.90
314;DHT22;143;51.634;7.112;2024-01-27T12:46:25;19.80;99.90
314;DHT22;143;51.634;7.112;2024-01-27T12:48:51;19.20;99.90
314;DHT22;143;51.634;7.112;2024-01-27T12:51:17;18.90;99.90
314;DHT22;143;51.634;7.112;2024-01-27T12:53:43;18.70;99.90
314;DHT22;143;51.634;7.112;2024-01-27T12:56:14;18.80;99.90
314;DHT22;143;51.634;7.112;2024-01-27T12:58:41;18.50;99.90
314;DHT22;143;51.634;7.112;2024-01-27T13:01:08;18.00;99.90
314;DHT22;143;51.634;7.112;2024-01-27T13:03:34;17.60;99.90
314;DHT22;143;51.634;7.112;2024-01-27T13:06:00;17.00;99.90
314;DHT22;143;51.634;7.112;2024-01-27T13:08:26;16.50;99.90
314;DHT22;143;51.634;7.112;2024-01-27T13:10:52;16.10;99.90
314;DHT22;143;51.634;7.112;2024-01-27T13:13:17;15.70;99.90
314;DHT22;143;51.634;7.112;2024-01-27T13:15:43;15.60;99.90
314;DHT22;143;51.634;7.112;2024-01-27T13:18:09;15.50;99.90
314;DHT22;143;51.634;7.112;2024-01-27T13:20:36;15.40;99.90
314;DHT22;143;51.634;7.112;2024-01-27T13:23:01;15.30;99.90
314;DHT22;143;51.634;7.112;2024-01-27T13:25:27;15.30;99.90
314;DHT22;143;51.634;7.112;2024-01-27T13:27:53;15.30;99.90
314;DHT22;143;51.634;7.112;2024-01-27T13:30:18;15.30;99.90
314;DHT22;143;51.634;7.112;2024-01-27T13:32:44;15.30;99.90
314;DHT22;143;51.634;7.112;2024-01-27T13:35:09;15.00;99.90
314;DHT22;143;51.634;7.112;2024-01-27T13:37:35;14.60;99.90
314;DHT22;143;51.634;7.112;2024-01-27T13:40:01;14.20;99.90
314;DHT22;143;51.634;7.112;2024-01-27T13:42:27;14.10;99.90
314;DHT22;143;51.634;7.112;2024-01-27T13:44:53;14.10;99.90
314;DHT22;143;51.634;7.112;2024-01-27T13:47:19;13.90;99.90
314;DHT22;143;51.634;7.112;2024-01-27T13:49:44;13.90;99.90
314;DHT22;143;51.634;7.112;2024-01-27T13:52:10;13.80;99.90
314;DHT22;143;51.634;7.112;2024-01-27T13:54:37;13.70;99.90
314;DHT22;143;51.634;7.112;2024-01-27T13:57:03;13.70;99.90
314;DHT22;143;51.634;7.112;2024-01-27T13:59:29;13.70;99.90
314;DHT22;143;51.634;7.112;2024-01-27T14:01:54;13.70;99.90
314;DHT22;143;51.634;7.112;2024-01-27T14:04:22;13.60;99.90
314;DHT22;143;51.634;7.112;2024-01-27T14:06:50;13.50;99.90
314;DHT22;143;51.634;7.112;2024-01-27T14:09:16;13.40;99.90
314;DHT22;143;51.634;7.112;2024-01-27T14:11:41;13.30;99.90
314;DHT22;143;51.634;7.112;2024-01-27T14:14:07;13.10;99.90
314;DHT22;143;51.634;7.112;2024-01-27T14:16:32;12.90;99.90
314;DHT22;143;51.634;7.112;2024-01-27T14:18:58;12.60;99.90
314;DHT22;143;51.634;7.112;2024-01-27T14:21:23;12.40;99.90
314;DHT22;143;51.634;7.112;2024-01-27T14:23:50;12.20;99.90
314;DHT22;143;51.634;7.112;2024-01-27T14:26:16;12.00;99.90
314;DHT22;143;51.634;7.112;2024-01-27T14:28:42;11.90;99.90
314;DHT22;143;51.634;7.112;2024-01-27T14:31:08;12.00;99.90
314;DHT22;143;51.634;7.112;2024-01-27T14:33:33;12.10;99.90
314;DHT22;143;51.634;7.112;2024-01-27T14:35:59;12.10;99.90
314;DHT22;143;51.634;7.112;2024-01-27T14:38:25;12.10;99.90
314;DHT22;143;51.634;7.112;2024-01-27T14:40:50;12.10;99.90
314;DHT22;143;51.634;7.112;2024-01-27T14:43:16;12.00;99.90
314;DHT22;143;51.634;7.112;2024-01-27T14:45:44;11.80;99.90
314;DHT22;143;51.634;7.112;2024-01-27T14:48:10;11.70;99.90
314;DHT22;143;51.634;7.112;2024-01-27T14:50:36;11.70;99.90
314;DHT22;143;51.634;7.112;2024-01-27T14:53:01;11.70;99.90
314;DHT22;143;51.634;7.112;2024-01-27T14:55:31;11.60;99.90
314;DHT22;143;51.634;7.112;2024-01-27T14:57:58;11.50;99.90
314;DHT22;143;51.634;7.112;2024-01-27T15:00:24;11.50;99.90
314;DHT22;143;51.634;7.112;2024-01-27T15:02:49;11.40;99.90
314;DHT22;143;51.634;7.112;2024-01-27T15:05:15;11.30;99.90
314;DHT22;143;51.634;7.112;2024-01-27T15:07:40;11.30;99.90
314;DHT22;143;51.634;7.112;2024-01-27T15:10:07;11.20;99.90
314;DHT22;143;51.634;7.112;2024-01-27T15:12:32;11.20;99.90
314;DHT22;143;51.634;7.112;2024-01-27T15:14:58;11.10;99.90
314;DHT22;143;51.634;7.112;2024-01-27T15:17:24;11.10;99.90
314;DHT22;143;51.634;7.112;2024-01-27T15:19:50;11.20;99.90
314;DHT22;143;51.634;7.112;2024-01-27T15:22:17;11.10;99.90
314;DHT22;143;51.634;7.112;2024-01-27T15:24:43;11.00;99.90
314;DHT22;143;51.634;7.112;2024-01-27T15:27:08;10.90;99.90
314;DHT22;143;51.634;7.112;2024-01-27T15:29:34;10.90;99.90
314;DHT22;143;51.634;7.112;2024-01-27T15:31:59;10.80;99.90
314;DHT22;143;51.634;7.112;2024-01-27T15:34:25;10.80;99.90
314;DHT22;143;51.634;7.112;2024-01-27T15:36:50;11.00;99.90
314;DHT22;143;51.634;7.112;2024-01-27T15:39:16;10.80;99.90
314;DHT22;143;51.634;7.112;2024-01-27T15:41:42;10.70;99.90
314;DHT22;143;51.634;7.112;2024-01-27T15:44:07;10.80;99.90
314;DHT22;143;51.634;7.112;2024-01-27T15:46:33;10.60;99.90
314;DHT22;143;51.634;7.112;2024-01-27T15:48:58;10.60;99.90
314;DHT22;143;51.634;7.112;2024-01-27T15:51:24;10.30;99.90
314;DHT22;143;51.634;7.112;2024-01-27T15:53:49;10.10;99.90
314;DHT22;143;51.634;7.112;2024-01-27T15:56:15;10.00;99.90
314;DHT22;143;51.634;7.112;2024-01-27T15:58:40;10.00;1.00
314;DHT22;143;51.634;7.112;2024-01-27T16:01:06;9.60;1.00
314;DHT22;143;51.634;7.112;2024-01-27T16:03:31;9.50;1.00
314;DHT22;143;51.634;7.112;2024-01-27T16:06:00;9.40;1.00
314;DHT22;143;51.634;7.112;2024-01-27T16:08:26;9.30;1.00
314;DHT22;143;51.634;7.112;2024-01-27T16:10:51;9.10;1.00
314;DHT22;143;51.634;7.112;2024-01-27T16:13:18;8.90;1.00
314;DHT22;143;51.634;7.112;2024-01-27T16:15:43;8.80;1.00
314;DHT22;143;51.634;7.112;2024-01-27T16:18:11;8.70;1.00
314;DHT22;143;51.634;7.112;2024-01-27T16:20:36;8.50;1.00
314;DHT22;143;51.634;7.112;2024-01-27T16:23:02;8.40;1.00
314;DHT22;143;51.634;7.112;2024-01-27T16:25:27;8.40;1.00
314;DHT22;143;51.634;7.112;2024-01-27T16:27:53;8.30;1.00
314;DHT22;143;51.634;7.112;2024-01-27T16:30:18;8.50;1.00
314;DHT22;143;51.634;7.112;2024-01-27T16:32:44;8.10;1.00
314;DHT22;143;51.634;7.112;2024-01-27T16:35:09;8.10;1.00
314;DHT22;143;51.634;7.112;2024-01-27T16:37:35;7.90;1.00
314;DHT22;143;51.634;7.112;2024-01-27T16:40:01;7.80;1.00
314;DHT22;143;51.634;7.112;2024-01-27T16:42:27;8.10;1.00
314;DHT22;143;51.634;7.112;2024-01-27T16:44:52;8.20;1.00
314;DHT22;143;51.634;7.112;2024-01-27T16:47:18;8.30;1.00
314;DHT22;143;51.634;7.112;2024-01-27T16:49:44;8.20;1.00